sensor_id;sensor_type;location;lat;lon;timestamp;P1;durP1;ratioP1;P2;durP2;ratioP2
7957;SDS011;4024;52.172;5.378;2022-09-09T00:01:08;1.83;;;1.63;;
7957;SDS011;4024;52.172;5.378;2022-09-09T00:06:14;1.77;;;1.53;;
7957;SDS011;4024;52.172;5.378;2022-09-09T00:21:10;2.70;;;2.00;;
7957;SDS011;4024;52.172;5.378;2022-09-09T00:23:32;2.70;;;2.10;;
7957;SDS011;4024;52.172;5.378;2022-09-09T00:29:22;2.10;;;1.90;;
7957;SDS011;4024;52.172;5.378;2022-09-09T00:32:00;3.43;;;2.20;;
7957;SDS011;4024;52.172;5.378;2022-09-09T00:34:36;4.87;;;2.20;;
7957;SDS011;4024;52.172;5.378;2022-09-09T00:37:16;2.57;;;2.07;;
7957;SDS011;4024;52.172;5.378;2022-09-09T00:39:47;2.67;;;2.00;;
7957;SDS011;4024;52.172;5.378;2022-09-09T00:44:50;3.23;;;2.30;;
7957;SDS011;4024;52.172;5.378;2022-09-09T00:47:20;3.43;;;2.60;;
7957;SDS011;4024;52.172;5.378;2022-09-09T00:53:05;4.30;;;2.80;;
7957;SDS011;4024;52.172;5.378;2022-09-09T00:58:31;4.80;;;2.50;;
7957;SDS011;4024;52.172;5.378;2022-09-09T01:01:03;4.40;;;3.00;;
7957;SDS011;4024;52.172;5.378;2022-09-09T01:03:44;3.07;;;2.77;;
7957;SDS011;4024;52.172;5.378;2022-09-09T01:06:16;6.67;;;3.43;;
7957;SDS011;4024;52.172;5.378;2022-09-09T01:08:52;4.87;;;3.60;;
7957;SDS011;4024;52.172;5.378;2022-09-09T01:11:52;4.00;;;2.83;;
7957;SDS011;4024;52.172;5.378;2022-09-09T01:15:47;5.20;;;2.77;;
7957;SDS011;4024;52.172;5.378;2022-09-09T01:20:29;6.27;;;3.30;;
7957;SDS011;4024;52.172;5.378;2022-09-09T01:23:41;3.30;;;3.00;;
7957;SDS011;4024;52.172;5.378;2022-09-09T01:26:19;3.53;;;2.77;;
7957;SDS011;4024;52.172;5.378;2022-09-09T01:28:58;4.27;;;2.70;;
7957;SDS011;4024;52.172;5.378;2022-09-09T01:33:56;3.63;;;3.17;;
7957;SDS011;4024;52.172;5.378;2022-09-09T01:38:58;5.63;;;3.10;;
7957;SDS011;4024;52.172;5.378;2022-09-09T01:41:24;4.53;;;2.97;;
7957;SDS011;4024;52.172;5.378;2022-09-09T01:43:50;4.77;;;3.10;;
7957;SDS011;4024;52.172;5.378;2022-09-09T01:46:18;4.50;;;3.10;;
7957;SDS011;4024;52.172;5.378;2022-09-09T01:48:47;5.60;;;3.53;;
7957;SDS011;4024;52.172;5.378;2022-09-09T01:51:15;4.13;;;3.27;;
7957;SDS011;4024;52.172;5.378;2022-09-09T01:53:41;3.80;;;3.00;;
7957;SDS011;4024;52.172;5.378;2022-09-09T02:04:02;3.93;;;3.53;;
7957;SDS011;4024;52.172;5.378;2022-09-09T02:06:37;4.53;;;3.60;;
7957;SDS011;4024;52.172;5.378;2022-09-09T02:09:05;6.13;;;3.73;;
7957;SDS011;4024;52.172;5.378;2022-09-09T02:11:35;6.47;;;3.80;;
7957;SDS011;4024;52.172;5.378;2022-09-09T02:14:03;7.50;;;4.03;;
7957;SDS011;4024;52.172;5.378;2022-09-09T02:17:06;3.90;;;3.50;;
7957;SDS011;4024;52.172;5.378;2022-09-09T02:19:34;4.80;;;3.87;;
7957;SDS011;4024;52.172;5.378;2022-09-09T02:22:04;4.37;;;3.97;;
7957;SDS011;4024;52.172;5.378;2022-09-09T02:24:31;4.83;;;3.93;;
7957;SDS011;4024;52.172;5.378;2022-09-09T02:27:00;6.63;;;4.13;;
7957;SDS011;4024;52.172;5.378;2022-09-09T02:29:33;4.53;;;4.13;;
7957;SDS011;4024;52.172;5.378;2022-09-09T02:32:02;5.80;;;4.87;;
7957;SDS011;4024;52.172;5.378;2022-09-09T02:34:31;5.07;;;4.33;;
7957;SDS011;4024;52.172;5.378;2022-09-09T02:37:04;4.70;;;4.30;;
7957;SDS011;4024;52.172;5.378;2022-09-09T02:39:33;4.70;;;4.30;;
7957;SDS011;4024;52.172;5.378;2022-09-09T02:41:59;6.43;;;4.20;;
7957;SDS011;4024;52.172;5.378;2022-09-09T02:44:24;6.33;;;4.53;;
7957;SDS011;4024;52.172;5.378;2022-09-09T02:52:18;5.40;;;4.37;;
7957;SDS011;4024;52.172;5.378;2022-09-09T02:54:50;6.33;;;5.20;;
7957;SDS011;4024;52.172;5.378;2022-09-09T02:57:25;5.03;;;4.57;;
7957;SDS011;4024;52.172;5.378;2022-09-09T02:59:53;5.63;;;4.90;;
7957;SDS011;4024;52.172;5.378;2022-09-09T03:02:21;7.40;;;4.83;;
7957;SDS011;4024;52.172;5.378;2022-09-09T03:04:47;6.10;;;5.47;;
7957;SDS011;4024;52.172;5.378;2022-09-09T03:07:16;5.83;;;4.60;;
7957;SDS011;4024;52.172;5.378;2022-09-09T03:09:42;6.30;;;5.67;;
7957;SDS011;4024;52.172;5.378;2022-09-09T03:12:09;5.30;;;4.73;;
7957;SDS011;4024;52.172;5.378;2022-09-09T03:14:36;5.60;;;5.10;;
7957;SDS011;4024;52.172;5.378;2022-09-09T03:17:05;7.33;;;6.00;;
7957;SDS011;4024;52.172;5.378;2022-09-09T03:19:30;5.77;;;5.10;;
7957;SDS011;4024;52.172;5.378;2022-09-09T03:21:57;8.13;;;5.40;;
7957;SDS011;4024;52.172;5.378;2022-09-09T03:24:23;5.93;;;5.33;;
7957;SDS011;4024;52.172;5.378;2022-09-09T03:26:49;6.00;;;5.40;;
7957;SDS011;4024;52.172;5.378;2022-09-09T03:29:15;6.90;;;5.63;;
7957;SDS011;4024;52.172;5.378;2022-09-09T03:31:43;6.00;;;5.37;;
7957;SDS011;4024;52.172;5.378;2022-09-09T03:34:09;7.57;;;5.70;;
7957;SDS011;4024;52.172;5.378;2022-09-09T03:36:35;6.10;;;5.10;;
7957;SDS011;4024;52.172;5.378;2022-09-09T03:39:02;6.47;;;5.77;;
7957;SDS011;4024;52.172;5.378;2022-09-09T03:41:28;8.87;;;5.77;;
7957;SDS011;4024;52.172;5.378;2022-09-09T03:43:55;6.97;;;6.23;;
7957;SDS011;4024;52.172;5.378;2022-09-09T03:46:22;6.80;;;6.10;;
7957;SDS011;4024;52.172;5.378;2022-09-09T03:48:48;7.23;;;6.23;;
7957;SDS011;4024;52.172;5.378;2022-09-09T03:51:14;6.23;;;5.63;;
7957;SDS011;4024;52.172;5.378;2022-09-09T03:53:41;6.83;;;5.67;;
7957;SDS011;4024;52.172;5.378;2022-09-09T03:56:08;7.10;;;6.23;;
7957;SDS011;4024;52.172;5.378;2022-09-09T03:58:34;7.80;;;6.17;;
7957;SDS011;4024;52.172;5.378;2022-09-09T04:03:41;8.53;;;6.23;;
7957;SDS011;4024;52.172;5.378;2022-09-09T04:06:08;9.43;;;6.47;;
7957;SDS011;4024;52.172;5.378;2022-09-09T04:08:36;7.37;;;6.00;;
7957;SDS011;4024;52.172;5.378;2022-09-09T04:11:03;7.77;;;6.60;;
7957;SDS011;4024;52.172;5.378;2022-09-09T04:13:31;8.80;;;6.50;;
7957;SDS011;4024;52.172;5.378;2022-09-09T04:15:59;7.20;;;6.43;;
7957;SDS011;4024;52.172;5.378;2022-09-09T04:18:26;7.10;;;6.40;;
7957;SDS011;4024;52.172;5.378;2022-09-09T04:20:53;7.10;;;6.40;;
7957;SDS011;4024;52.172;5.378;2022-09-09T04:23:20;7.33;;;6.33;;
7957;SDS011;4024;52.172;5.378;2022-09-09T04:25:49;8.87;;;6.77;;
7957;SDS011;4024;52.172;5.378;2022-09-09T04:28:16;7.10;;;6.40;;
7957;SDS011;4024;52.172;5.378;2022-09-09T04:30:43;9.00;;;6.40;;
7957;SDS011;4024;52.172;5.378;2022-09-09T04:33:10;8.37;;;6.87;;
7957;SDS011;4024;52.172;5.378;2022-09-09T04:35:36;8.63;;;6.50;;
7957;SDS011;4024;52.172;5.378;2022-09-09T04:38:03;7.93;;;6.07;;
7957;SDS011;4024;52.172;5.378;2022-09-09T04:40:30;8.77;;;6.07;;
7957;SDS011;4024;52.172;5.378;2022-09-09T04:42:59;7.00;;;6.30;;
7957;SDS011;4024;52.172;5.378;2022-09-09T04:45:26;7.63;;;6.23;;
7957;SDS011;4024;52.172;5.378;2022-09-09T04:47:52;6.90;;;6.20;;
7957;SDS011;4024;52.172;5.378;2022-09-09T04:50:18;7.13;;;6.40;;
7957;SDS011;4024;52.172;5.378;2022-09-09T04:52:44;7.20;;;6.00;;
7957;SDS011;4024;52.172;5.378;2022-09-09T04:55:10;8.27;;;5.60;;
7957;SDS011;4024;52.172;5.378;2022-09-09T04:57:36;7.77;;;5.43;;
7957;SDS011;4024;52.172;5.378;2022-09-09T05:00:02;8.70;;;5.70;;
7957;SDS011;4024;52.172;5.378;2022-09-09T05:02:29;7.43;;;5.37;;
7957;SDS011;4024;52.172;5.378;2022-09-09T05:04:55;8.33;;;5.07;;
7957;SDS011;4024;52.172;5.378;2022-09-09T05:07:21;6.60;;;5.57;;
7957;SDS011;4024;52.172;5.378;2022-09-09T05:09:47;6.63;;;5.13;;
7957;SDS011;4024;52.172;5.378;2022-09-09T05:12:14;6.43;;;5.57;;
7957;SDS011;4024;52.172;5.378;2022-09-09T05:14:41;6.53;;;5.43;;
7957;SDS011;4024;52.172;5.378;2022-09-09T05:17:10;7.73;;;5.03;;
7957;SDS011;4024;52.172;5.378;2022-09-09T05:19:35;7.70;;;5.17;;
7957;SDS011;4024;52.172;5.378;2022-09-09T05:22:01;6.83;;;5.43;;
7957;SDS011;4024;52.172;5.378;2022-09-09T05:24:27;6.20;;;5.27;;
7957;SDS011;4024;52.172;5.378;2022-09-09T05:26:53;7.97;;;5.53;;
7957;SDS011;4024;52.172;5.378;2022-09-09T05:29:18;8.17;;;5.40;;
7957;SDS011;4024;52.172;5.378;2022-09-09T05:31:44;7.40;;;5.57;;
7957;SDS011;4024;52.172;5.378;2022-09-09T05:34:10;5.57;;;5.00;;
7957;SDS011;4024;52.172;5.378;2022-09-09T05:36:36;7.83;;;5.47;;
7957;SDS011;4024;52.172;5.378;2022-09-09T05:39:02;6.70;;;5.60;;
7957;SDS011;4024;52.172;5.378;2022-09-09T05:41:28;8.17;;;5.60;;
7957;SDS011;4024;52.172;5.378;2022-09-09T05:43:55;8.67;;;5.13;;
7957;SDS011;4024;52.172;5.378;2022-09-09T05:46:21;11.10;;;5.23;;
7957;SDS011;4024;52.172;5.378;2022-09-09T05:48:49;7.90;;;5.53;;
7957;SDS011;4024;52.172;5.378;2022-09-09T05:51:25;8.73;;;5.07;;
7957;SDS011;4024;52.172;5.378;2022-09-09T05:53:53;8.73;;;4.83;;
7957;SDS011;4024;52.172;5.378;2022-09-09T05:56:20;5.73;;;4.97;;
7957;SDS011;4024;52.172;5.378;2022-09-09T05:58:50;7.73;;;5.13;;
7957;SDS011;4024;52.172;5.378;2022-09-09T06:01:17;7.53;;;5.03;;
7957;SDS011;4024;52.172;5.378;2022-09-09T06:03:45;6.20;;;5.00;;
7957;SDS011;4024;52.172;5.378;2022-09-09T06:06:16;8.80;;;5.10;;
7957;SDS011;4024;52.172;5.378;2022-09-09T06:08:43;6.07;;;5.10;;
7957;SDS011;4024;52.172;5.378;2022-09-09T06:11:11;10.80;;;5.17;;
7957;SDS011;4024;52.172;5.378;2022-09-09T06:13:38;9.50;;;5.43;;
7957;SDS011;4024;52.172;5.378;2022-09-09T06:16:14;6.03;;;4.50;;
7957;SDS011;4024;52.172;5.378;2022-09-09T06:18:41;8.10;;;5.00;;
7957;SDS011;4024;52.172;5.378;2022-09-09T06:21:09;8.43;;;5.13;;
7957;SDS011;4024;52.172;5.378;2022-09-09T06:23:40;7.50;;;5.10;;
7957;SDS011;4024;52.172;5.378;2022-09-09T06:26:09;9.47;;;4.70;;
7957;SDS011;4024;52.172;5.378;2022-09-09T06:28:37;6.37;;;4.90;;
7957;SDS011;4024;52.172;5.378;2022-09-09T06:31:04;9.07;;;5.30;;
7957;SDS011;4024;52.172;5.378;2022-09-09T06:33:31;8.63;;;5.10;;
7957;SDS011;4024;52.172;5.378;2022-09-09T06:35:59;8.97;;;5.03;;
7957;SDS011;4024;52.172;5.378;2022-09-09T06:38:26;9.53;;;4.43;;
7957;SDS011;4024;52.172;5.378;2022-09-09T06:40:53;9.37;;;4.77;;
7957;SDS011;4024;52.172;5.378;2022-09-09T06:43:20;8.23;;;4.73;;
7957;SDS011;4024;52.172;5.378;2022-09-09T06:45:53;8.43;;;4.97;;
7957;SDS011;4024;52.172;5.378;2022-09-09T06:48:19;10.77;;;4.60;;
7957;SDS011;4024;52.172;5.378;2022-09-09T06:50:45;9.37;;;4.07;;
7957;SDS011;4024;52.172;5.378;2022-09-09T06:53:11;6.90;;;4.40;;
7957;SDS011;4024;52.172;5.378;2022-09-09T06:55:36;5.90;;;3.87;;
7957;SDS011;4024;52.172;5.378;2022-09-09T06:58:02;7.53;;;4.20;;
7957;SDS011;4024;52.172;5.378;2022-09-09T07:00:33;10.27;;;4.20;;
7957;SDS011;4024;52.172;5.378;2022-09-09T07:03:02;7.27;;;3.83;;
7957;SDS011;4024;52.172;5.378;2022-09-09T07:05:28;6.83;;;3.73;;
7957;SDS011;4024;52.172;5.378;2022-09-09T07:07:54;7.50;;;3.67;;
7957;SDS011;4024;52.172;5.378;2022-09-09T07:12:53;10.30;;;4.43;;
7957;SDS011;4024;52.172;5.378;2022-09-09T07:15:19;8.43;;;3.90;;
7957;SDS011;4024;52.172;5.378;2022-09-09T07:17:46;6.50;;;3.70;;
7957;SDS011;4024;52.172;5.378;2022-09-09T07:20:13;6.47;;;3.30;;
7957;SDS011;4024;52.172;5.378;2022-09-09T07:22:39;7.73;;;3.40;;
7957;SDS011;4024;52.172;5.378;2022-09-09T07:25:06;7.10;;;3.57;;
7957;SDS011;4024;52.172;5.378;2022-09-09T07:27:32;8.63;;;3.70;;
7957;SDS011;4024;52.172;5.378;2022-09-09T07:29:58;5.67;;;3.43;;
7957;SDS011;4024;52.172;5.378;2022-09-09T07:32:24;9.17;;;3.77;;
7957;SDS011;4024;52.172;5.378;2022-09-09T07:34:50;7.30;;;3.43;;
7957;SDS011;4024;52.172;5.378;2022-09-09T07:37:16;7.47;;;3.17;;
7957;SDS011;4024;52.172;5.378;2022-09-09T07:39:43;8.47;;;3.70;;
7957;SDS011;4024;52.172;5.378;2022-09-09T07:42:09;7.53;;;3.20;;
7957;SDS011;4024;52.172;5.378;2022-09-09T07:44:36;9.17;;;3.60;;
7957;SDS011;4024;52.172;5.378;2022-09-09T07:47:04;9.00;;;3.43;;
7957;SDS011;4024;52.172;5.378;2022-09-09T07:49:30;6.87;;;3.50;;
7957;SDS011;4024;52.172;5.378;2022-09-09T07:51:57;9.27;;;3.33;;
7957;SDS011;4024;52.172;5.378;2022-09-09T07:54:26;8.17;;;3.40;;
7957;SDS011;4024;52.172;5.378;2022-09-09T07:56:52;8.70;;;3.10;;
7957;SDS011;4024;52.172;5.378;2022-09-09T07:59:18;14.33;;;4.03;;
7957;SDS011;4024;52.172;5.378;2022-09-09T08:01:45;8.97;;;3.93;;
7957;SDS011;4024;52.172;5.378;2022-09-09T08:04:14;5.53;;;3.60;;
7957;SDS011;4024;52.172;5.378;2022-09-09T08:06:46;9.67;;;3.80;;
7957;SDS011;4024;52.172;5.378;2022-09-09T08:09:14;9.40;;;3.50;;
7957;SDS011;4024;52.172;5.378;2022-09-09T08:11:40;10.47;;;3.70;;
7957;SDS011;4024;52.172;5.378;2022-09-09T08:14:06;6.67;;;3.33;;
7957;SDS011;4024;52.172;5.378;2022-09-09T08:16:34;7.70;;;3.60;;
7957;SDS011;4024;52.172;5.378;2022-09-09T08:19:02;5.90;;;3.03;;
7957;SDS011;4024;52.172;5.378;2022-09-09T08:21:30;8.93;;;3.53;;
7957;SDS011;4024;52.172;5.378;2022-09-09T08:23:57;5.20;;;3.00;;
7957;SDS011;4024;52.172;5.378;2022-09-09T08:26:33;6.77;;;3.47;;
7957;SDS011;4024;52.172;5.378;2022-09-09T08:29:01;5.47;;;3.00;;
7957;SDS011;4024;52.172;5.378;2022-09-09T08:31:29;9.57;;;3.37;;
7957;SDS011;4024;52.172;5.378;2022-09-09T08:33:57;8.93;;;3.27;;
7957;SDS011;4024;52.172;5.378;2022-09-09T08:36:28;6.17;;;3.10;;
7957;SDS011;4024;52.172;5.378;2022-09-09T08:38:58;11.67;;;3.50;;
7957;SDS011;4024;52.172;5.378;2022-09-09T08:41:40;7.30;;;3.10;;
7957;SDS011;4024;52.172;5.378;2022-09-09T08:49:38;10.90;;;3.20;;
7957;SDS011;4024;52.172;5.378;2022-09-09T08:52:37;9.77;;;3.00;;
7957;SDS011;4024;52.172;5.378;2022-09-09T08:58:11;7.07;;;3.37;;
7957;SDS011;4024;52.172;5.378;2022-09-09T09:00:52;7.27;;;2.90;;
7957;SDS011;4024;52.172;5.378;2022-09-09T09:03:35;6.80;;;2.97;;
7957;SDS011;4024;52.172;5.378;2022-09-09T09:08:43;10.57;;;3.63;;
7957;SDS011;4024;52.172;5.378;2022-09-09T09:11:20;6.43;;;3.10;;
7957;SDS011;4024;52.172;5.378;2022-09-09T09:19:12;6.90;;;3.00;;
7957;SDS011;4024;52.172;5.378;2022-09-09T09:21:43;6.53;;;2.87;;
7957;SDS011;4024;52.172;5.378;2022-09-09T09:24:23;7.43;;;3.90;;
7957;SDS011;4024;52.172;5.378;2022-09-09T09:26:57;5.87;;;2.80;;
7957;SDS011;4024;52.172;5.378;2022-09-09T09:29:26;9.37;;;3.73;;
7957;SDS011;4024;52.172;5.378;2022-09-09T09:31:52;6.27;;;2.90;;
7957;SDS011;4024;52.172;5.378;2022-09-09T09:34:21;5.23;;;2.53;;
7957;SDS011;4024;52.172;5.378;2022-09-09T09:36:57;7.17;;;3.00;;
7957;SDS011;4024;52.172;5.378;2022-09-09T09:39:29;8.47;;;2.90;;
7957;SDS011;4024;52.172;5.378;2022-09-09T09:42:07;7.17;;;3.23;;
7957;SDS011;4024;52.172;5.378;2022-09-09T09:44:38;9.00;;;3.17;;
7957;SDS011;4024;52.172;5.378;2022-09-09T09:47:07;6.73;;;3.23;;
7957;SDS011;4024;52.172;5.378;2022-09-09T09:49:38;8.17;;;3.20;;
7957;SDS011;4024;52.172;5.378;2022-09-09T09:52:04;11.67;;;3.57;;
7957;SDS011;4024;52.172;5.378;2022-09-09T09:54:39;7.47;;;3.03;;
7957;SDS011;4024;52.172;5.378;2022-09-09T09:57:09;10.47;;;3.20;;
7957;SDS011;4024;52.172;5.378;2022-09-09T09:59:42;7.80;;;3.00;;
7957;SDS011;4024;52.172;5.378;2022-09-09T10:02:15;10.23;;;3.57;;
7957;SDS011;4024;52.172;5.378;2022-09-09T10:04:43;10.87;;;3.83;;
7957;SDS011;4024;52.172;5.378;2022-09-09T10:07:16;7.93;;;3.03;;
7957;SDS011;4024;52.172;5.378;2022-09-09T10:09:51;8.67;;;3.07;;
7957;SDS011;4024;52.172;5.378;2022-09-09T10:17:47;7.10;;;3.30;;
7957;SDS011;4024;52.172;5.378;2022-09-09T10:25:57;8.77;;;3.10;;
7957;SDS011;4024;52.172;5.378;2022-09-09T10:31:33;6.47;;;3.37;;
7957;SDS011;4024;52.172;5.378;2022-09-09T10:37:19;9.87;;;3.70;;
7957;SDS011;4024;52.172;5.378;2022-09-09T10:39:54;8.37;;;3.37;;
7957;SDS011;4024;52.172;5.378;2022-09-09T10:42:40;9.93;;;3.40;;
7957;SDS011;4024;52.172;5.378;2022-09-09T10:45:14;11.93;;;3.63;;
7957;SDS011;4024;52.172;5.378;2022-09-09T10:47:52;5.50;;;3.20;;
7957;SDS011;4024;52.172;5.378;2022-09-09T10:50:51;6.00;;;2.90;;
7957;SDS011;4024;52.172;5.378;2022-09-09T10:53:42;6.00;;;3.10;;
7957;SDS011;4024;52.172;5.378;2022-09-09T10:56:15;11.30;;;3.20;;
7957;SDS011;4024;52.172;5.378;2022-09-09T11:01:22;5.83;;;3.00;;
7957;SDS011;4024;52.172;5.378;2022-09-09T11:03:54;9.93;;;3.27;;
7957;SDS011;4024;52.172;5.378;2022-09-09T11:06:37;7.13;;;2.57;;
7957;SDS011;4024;52.172;5.378;2022-09-09T11:09:08;4.67;;;2.53;;
7957;SDS011;4024;52.172;5.378;2022-09-09T11:11:43;8.30;;;3.03;;
7957;SDS011;4024;52.172;5.378;2022-09-09T11:14:21;5.03;;;2.67;;
7957;SDS011;4024;52.172;5.378;2022-09-09T11:17:04;6.60;;;3.10;;
7957;SDS011;4024;52.172;5.378;2022-09-09T11:19:36;5.57;;;2.87;;
7957;SDS011;4024;52.172;5.378;2022-09-09T11:25:08;4.80;;;2.97;;
7957;SDS011;4024;52.172;5.378;2022-09-09T11:27:49;4.73;;;2.73;;
7957;SDS011;4024;52.172;5.378;2022-09-09T11:41:04;6.40;;;2.90;;
7957;SDS011;4024;52.172;5.378;2022-09-09T11:43:39;6.73;;;3.20;;
7957;SDS011;4024;52.172;5.378;2022-09-09T11:46:10;7.80;;;3.00;;
7957;SDS011;4024;52.172;5.378;2022-09-09T11:48:40;6.57;;;2.80;;
7957;SDS011;4024;52.172;5.378;2022-09-09T11:51:25;5.60;;;3.00;;
7957;SDS011;4024;52.172;5.378;2022-09-09T11:54:00;5.63;;;2.43;;
7957;SDS011;4024;52.172;5.378;2022-09-09T11:56:31;4.13;;;2.70;;
7957;SDS011;4024;52.172;5.378;2022-09-09T11:59:27;7.67;;;2.80;;
7957;SDS011;4024;52.172;5.378;2022-09-09T12:01:55;5.23;;;3.00;;
7957;SDS011;4024;52.172;5.378;2022-09-09T12:06:53;6.30;;;2.97;;
7957;SDS011;4024;52.172;5.378;2022-09-09T12:09:24;5.33;;;3.23;;
7957;SDS011;4024;52.172;5.378;2022-09-09T12:14:42;5.27;;;3.30;;
7957;SDS011;4024;52.172;5.378;2022-09-09T12:17:22;6.57;;;3.37;;
7957;SDS011;4024;52.172;5.378;2022-09-09T12:25:32;8.83;;;3.40;;
7957;SDS011;4024;52.172;5.378;2022-09-09T12:28:39;8.13;;;3.67;;
7957;SDS011;4024;52.172;5.378;2022-09-09T12:34:11;6.50;;;2.57;;
7957;SDS011;4024;52.172;5.378;2022-09-09T12:36:44;5.57;;;2.93;;
7957;SDS011;4024;52.172;5.378;2022-09-09T12:39:17;7.90;;;3.07;;
7957;SDS011;4024;52.172;5.378;2022-09-09T12:41:55;7.03;;;3.00;;
7957;SDS011;4024;52.172;5.378;2022-09-09T12:44:22;5.23;;;3.30;;
7957;SDS011;4024;52.172;5.378;2022-09-09T12:46:50;5.60;;;3.20;;
7957;SDS011;4024;52.172;5.378;2022-09-09T12:49:36;5.80;;;2.67;;
7957;SDS011;4024;52.172;5.378;2022-09-09T12:52:05;4.43;;;2.67;;
7957;SDS011;4024;52.172;5.378;2022-09-09T12:54:37;6.10;;;3.37;;
7957;SDS011;4024;52.172;5.378;2022-09-09T12:57:03;6.63;;;3.00;;
7957;SDS011;4024;52.172;5.378;2022-09-09T12:59:37;6.37;;;2.87;;
7957;SDS011;4024;52.172;5.378;2022-09-09T13:02:26;6.30;;;3.20;;
7957;SDS011;4024;52.172;5.378;2022-09-09T13:04:55;6.77;;;3.17;;
7957;SDS011;4024;52.172;5.378;2022-09-09T13:07:38;5.53;;;3.10;;
7957;SDS011;4024;52.172;5.378;2022-09-09T13:10:04;5.10;;;3.47;;
7957;SDS011;4024;52.172;5.378;2022-09-09T13:12:31;7.60;;;3.37;;
7957;SDS011;4024;52.172;5.378;2022-09-09T13:14:56;6.10;;;2.80;;
7957;SDS011;4024;52.172;5.378;2022-09-09T13:17:26;6.73;;;3.00;;
7957;SDS011;4024;52.172;5.378;2022-09-09T13:19:54;7.27;;;3.00;;
7957;SDS011;4024;52.172;5.378;2022-09-09T13:25:03;3.70;;;2.70;;
7957;SDS011;4024;52.172;5.378;2022-09-09T13:27:38;3.87;;;2.77;;
7957;SDS011;4024;52.172;5.378;2022-09-09T13:30:18;6.07;;;2.60;;
7957;SDS011;4024;52.172;5.378;2022-09-09T13:32:59;4.80;;;2.70;;
7957;SDS011;4024;52.172;5.378;2022-09-09T13:35:35;3.27;;;2.73;;
7957;SDS011;4024;52.172;5.378;2022-09-09T13:38:15;3.97;;;2.33;;
7957;SDS011;4024;52.172;5.378;2022-09-09T13:41:00;5.70;;;3.30;;
7957;SDS011;4024;52.172;5.378;2022-09-09T13:43:30;6.47;;;3.27;;
7957;SDS011;4024;52.172;5.378;2022-09-09T13:46:25;5.03;;;3.50;;
7957;SDS011;4024;52.172;5.378;2022-09-09T13:48:55;4.20;;;3.10;;
7957;SDS011;4024;52.172;5.378;2022-09-09T13:52:06;9.70;;;3.47;;
7957;SDS011;4024;52.172;5.378;2022-09-09T13:54:16;6.67;;;3.13;;
7957;SDS011;4024;52.172;5.378;2022-09-09T13:56:44;6.50;;;3.20;;
7957;SDS011;4024;52.172;5.378;2022-09-09T13:59:14;5.37;;;3.33;;
7957;SDS011;4024;52.172;5.378;2022-09-09T14:01:41;5.07;;;3.40;;
7957;SDS011;4024;52.172;5.378;2022-09-09T14:04:07;6.40;;;3.30;;
7957;SDS011;4024;52.172;5.378;2022-09-09T14:06:37;6.37;;;3.60;;
7957;SDS011;4024;52.172;5.378;2022-09-09T14:09:09;3.53;;;3.13;;
7957;SDS011;4024;52.172;5.378;2022-09-09T14:11:36;4.17;;;2.63;;
7957;SDS011;4024;52.172;5.378;2022-09-09T14:14:03;6.50;;;3.20;;
7957;SDS011;4024;52.172;5.378;2022-09-09T14:16:29;5.53;;;2.67;;
7957;SDS011;4024;52.172;5.378;2022-09-09T14:18:55;6.20;;;3.33;;
7957;SDS011;4024;52.172;5.378;2022-09-09T14:21:24;4.43;;;2.70;;
7957;SDS011;4024;52.172;5.378;2022-09-09T14:23:51;6.87;;;3.27;;
7957;SDS011;4024;52.172;5.378;2022-09-09T14:26:17;5.70;;;3.00;;
7957;SDS011;4024;52.172;5.378;2022-09-09T14:28:46;5.97;;;3.27;;
7957;SDS011;4024;52.172;5.378;2022-09-09T14:31:13;5.63;;;3.10;;
7957;SDS011;4024;52.172;5.378;2022-09-09T14:33:39;6.27;;;3.13;;
7957;SDS011;4024;52.172;5.378;2022-09-09T14:36:05;8.40;;;3.83;;
7957;SDS011;4024;52.172;5.378;2022-09-09T14:38:31;6.13;;;3.47;;
7957;SDS011;4024;52.172;5.378;2022-09-09T14:40:59;6.90;;;3.37;;
7957;SDS011;4024;52.172;5.378;2022-09-09T14:43:28;6.17;;;3.20;;
7957;SDS011;4024;52.172;5.378;2022-09-09T14:45:55;6.47;;;3.30;;
7957;SDS011;4024;52.172;5.378;2022-09-09T14:48:21;7.77;;;3.30;;
7957;SDS011;4024;52.172;5.378;2022-09-09T14:50:47;5.57;;;3.73;;
7957;SDS011;4024;52.172;5.378;2022-09-09T14:53:14;7.87;;;3.57;;
7957;SDS011;4024;52.172;5.378;2022-09-09T14:55:41;6.70;;;3.23;;
7957;SDS011;4024;52.172;5.378;2022-09-09T14:58:07;3.73;;;3.23;;
7957;SDS011;4024;52.172;5.378;2022-09-09T15:00:33;7.27;;;3.47;;
7957;SDS011;4024;52.172;5.378;2022-09-09T15:02:59;8.93;;;3.60;;
7957;SDS011;4024;52.172;5.378;2022-09-09T15:05:24;9.83;;;3.83;;
7957;SDS011;4024;52.172;5.378;2022-09-09T15:07:50;5.90;;;4.07;;
7957;SDS011;4024;52.172;5.378;2022-09-09T15:10:16;6.83;;;3.40;;
7957;SDS011;4024;52.172;5.378;2022-09-09T15:12:42;5.00;;;3.70;;
7957;SDS011;4024;52.172;5.378;2022-09-09T15:15:09;8.87;;;3.97;;
7957;SDS011;4024;52.172;5.378;2022-09-09T15:17:35;5.60;;;3.40;;
7957;SDS011;4024;52.172;5.378;2022-09-09T15:20:02;5.20;;;3.10;;
7957;SDS011;4024;52.172;5.378;2022-09-09T15:22:30;5.60;;;2.97;;
7957;SDS011;4024;52.172;5.378;2022-09-09T15:24:56;6.77;;;3.00;;
7957;SDS011;4024;52.172;5.378;2022-09-09T15:27:22;5.10;;;2.70;;
7957;SDS011;4024;52.172;5.378;2022-09-09T15:29:48;5.23;;;2.93;;
7957;SDS011;4024;52.172;5.378;2022-09-09T15:32:15;3.67;;;2.63;;
7957;SDS011;4024;52.172;5.378;2022-09-09T15:34:40;3.93;;;2.50;;
7957;SDS011;4024;52.172;5.378;2022-09-09T15:37:09;5.93;;;2.10;;
7957;SDS011;4024;52.172;5.378;2022-09-09T15:39:37;4.83;;;2.43;;
7957;SDS011;4024;52.172;5.378;2022-09-09T15:42:04;2.60;;;2.10;;
7957;SDS011;4024;52.172;5.378;2022-09-09T15:44:29;4.00;;;1.90;;
7957;SDS011;4024;52.172;5.378;2022-09-09T15:47:03;5.87;;;2.20;;
7957;SDS011;4024;52.172;5.378;2022-09-09T15:49:30;3.43;;;2.00;;
7957;SDS011;4024;52.172;5.378;2022-09-09T15:51:56;2.03;;;1.83;;
7957;SDS011;4024;52.172;5.378;2022-09-09T15:54:28;4.77;;;2.20;;
7957;SDS011;4024;52.172;5.378;2022-09-09T15:56:58;3.73;;;2.10;;
7957;SDS011;4024;52.172;5.378;2022-09-09T15:59:26;3.73;;;2.20;;
7957;SDS011;4024;52.172;5.378;2022-09-09T16:01:54;3.37;;;1.97;;
7957;SDS011;4024;52.172;5.378;2022-09-09T16:04:21;5.30;;;2.40;;
7957;SDS011;4024;52.172;5.378;2022-09-09T16:06:51;3.00;;;2.37;;
7957;SDS011;4024;52.172;5.378;2022-09-09T16:09:18;4.53;;;2.20;;
7957;SDS011;4024;52.172;5.378;2022-09-09T16:11:44;4.80;;;2.70;;
7957;SDS011;4024;52.172;5.378;2022-09-09T16:14:10;4.37;;;2.40;;
7957;SDS011;4024;52.172;5.378;2022-09-09T16:16:36;3.37;;;2.50;;
7957;SDS011;4024;52.172;5.378;2022-09-09T16:19:03;5.10;;;2.60;;
7957;SDS011;4024;52.172;5.378;2022-09-09T16:21:32;3.40;;;2.53;;
7957;SDS011;4024;52.172;5.378;2022-09-09T16:24:00;3.70;;;2.40;;
7957;SDS011;4024;52.172;5.378;2022-09-09T16:26:28;6.07;;;2.60;;
7957;SDS011;4024;52.172;5.378;2022-09-09T16:28:55;3.53;;;2.50;;
7957;SDS011;4024;52.172;5.378;2022-09-09T16:31:24;3.93;;;2.50;;
7957;SDS011;4024;52.172;5.378;2022-09-09T16:34:01;4.57;;;2.20;;
7957;SDS011;4024;52.172;5.378;2022-09-09T16:36:29;2.87;;;2.50;;
7957;SDS011;4024;52.172;5.378;2022-09-09T16:38:59;6.03;;;2.83;;
7957;SDS011;4024;52.172;5.378;2022-09-09T16:41:28;4.00;;;2.20;;
7957;SDS011;4024;52.172;5.378;2022-09-09T16:43:58;4.43;;;2.43;;
7957;SDS011;4024;52.172;5.378;2022-09-09T16:46:27;3.67;;;2.40;;
7957;SDS011;4024;52.172;5.378;2022-09-09T16:48:55;5.00;;;2.60;;
7957;SDS011;4024;52.172;5.378;2022-09-09T16:51:27;3.73;;;2.27;;
7957;SDS011;4024;52.172;5.378;2022-09-09T16:53:58;4.10;;;2.53;;
7957;SDS011;4024;52.172;5.378;2022-09-09T16:56:26;4.53;;;2.57;;
7957;SDS011;4024;52.172;5.378;2022-09-09T16:58:54;3.07;;;2.50;;
7957;SDS011;4024;52.172;5.378;2022-09-09T17:01:22;4.17;;;2.60;;
7957;SDS011;4024;52.172;5.378;2022-09-09T17:03:53;4.63;;;2.60;;
7957;SDS011;4024;52.172;5.378;2022-09-09T17:06:21;4.77;;;2.80;;
7957;SDS011;4024;52.172;5.378;2022-09-09T17:08:48;3.63;;;2.60;;
7957;SDS011;4024;52.172;5.378;2022-09-09T17:11:19;6.07;;;2.93;;
7957;SDS011;4024;52.172;5.378;2022-09-09T17:13:45;5.57;;;3.07;;
7957;SDS011;4024;52.172;5.378;2022-09-09T17:16:13;5.13;;;3.30;;
7957;SDS011;4024;52.172;5.378;2022-09-09T17:18:40;5.80;;;3.10;;
7957;SDS011;4024;52.172;5.378;2022-09-09T17:21:07;5.80;;;3.00;;
7957;SDS011;4024;52.172;5.378;2022-09-09T17:23:35;3.87;;;2.77;;
7957;SDS011;4024;52.172;5.378;2022-09-09T17:26:03;4.20;;;2.83;;
7957;SDS011;4024;52.172;5.378;2022-09-09T17:28:32;5.20;;;3.63;;
7957;SDS011;4024;52.172;5.378;2022-09-09T17:30:59;5.67;;;3.23;;
7957;SDS011;4024;52.172;5.378;2022-09-09T17:33:27;5.57;;;3.40;;